Time;durP1;ratioP1;P1;durP2;ratioP2;P2;SDS_P1;SDS_P2;PMS_P1;PMS_P2;Temp;Humidity;BMP_temperature;BMP_pressure;BME280_temperature;BME280_humidity;BME280_pressure;Samples;Min_cycle;Max_cycle;Signal;HPM_P1;HPM_P2
2023/03/08 00:01:28;;;;;;;2.50;0.73;;;;;;;;;;5029150;28;20146;-65
2023/03/08 00:03:55;;;;;;;8.25;1.20;;;;;;;;;;5049625;28;20139;-65
2023/03/08 00:06:22;;;;;;;3.22;0.82;;;;;;;;;;5046698;28;20235;-65
2023/03/08 00:08:48;;;;;;;4.55;1.10;;;;;;;;;;5036328;28;20049;-65
2023/03/08 00:11:15;;;;;;;2.22;0.88;;;;;;;;;;5018350;28;20056;-65
2023/03/08 00:13:41;;;;;;;2.90;0.80;;;;;;;;;;5045185;28;20048;-66
2023/03/08 00:16:08;;;;;;;2.70;1.20;;;;;;;;;;5046167;28;20128;-65
2023/03/08 00:18:35;;;;;;;2.92;0.50;;;;;;;;;;5041591;28;20044;-65
2023/03/08 00:21:02;;;;;;;1.35;0.50;;;;;;;;;;5046120;28;20045;-65
2023/03/08 00:23:28;;;;;;;2.22;0.63;;;;;;;;;;5043966;28;20206;-65
2023/03/08 00:25:54;;;;;;;0.63;0.32;;;;;;;;;;5017777;28;20048;-65
2023/03/08 00:28:20;;;;;;;0.30;0.30;;;;;;;;;;5053543;28;20525;-65
2023/03/08 00:30:54;;;;;;;0.82;0.50;;;;;;;;;;5041519;28;20058;-65
2023/03/08 00:33:20;;;;;;;1.00;0.43;;;;;;;;;;5039838;28;20053;-65
2023/03/08 00:35:54;;;;;;;2.30;0.40;;;;;;;;;;5045350;28;20047;-65
2023/03/08 00:38:20;;;;;;;2.72;0.52;;;;;;;;;;5050086;28;20092;-65
2023/03/08 00:40:46;;;;;;;2.05;1.02;;;;;;;;;;5044047;28;20118;-65
2023/03/08 00:43:12;;;;;;;0.93;0.55;;;;;;;;;;5048212;28;20091;-65
2023/03/08 00:45:38;;;;;;;1.52;0.60;;;;;;;;;;5055005;28;20044;-65
2023/03/08 00:48:04;;;;;;;2.42;0.43;;;;;;;;;;5032780;28;20186;-65
2023/03/08 00:50:30;;;;;;;2.63;0.60;;;;;;;;;;5040542;28;20418;-65
2023/03/08 00:52:57;;;;;;;1.10;0.50;;;;;;;;;;5044207;28;20044;-65
2023/03/08 00:55:23;;;;;;;0.88;0.50;;;;;;;;;;5050382;28;20066;-65
2023/03/08 00:57:49;;;;;;;0.75;0.40;;;;;;;;;;5053075;28;20402;-65
2023/03/08 01:00:15;;;;;;;0.95;0.60;;;;;;;;;;5046351;28;20030;-65
2023/03/08 01:02:42;;;;;;;3.83;0.63;;;;;;;;;;5040969;28;20457;-65
2023/03/08 01:05:08;;;;;;;2.80;0.68;;;;;;;;;;5057786;28;20047;-65
2023/03/08 01:07:34;;;;;;;1.20;0.55;;;;;;;;;;5051394;28;20037;-65
2023/03/08 01:10:02;;;;;;;2.70;0.63;;;;;;;;;;5048564;28;20033;-65
2023/03/08 01:12:29;;;;;;;1.48;0.70;;;;;;;;;;5053844;28;20037;-65
2023/03/08 01:14:55;;;;;;;1.33;0.57;;;;;;;;;;5051592;28;20038;-66
2023/03/08 01:17:21;;;;;;;1.75;0.63;;;;;;;;;;5050708;28;20402;-65
2023/03/08 01:19:47;;;;;;;1.38;0.50;;;;;;;;;;5052403;28;20489;-65
2023/03/08 01:22:13;;;;;;;6.45;0.82;;;;;;;;;;5047939;28;20107;-65
2023/03/08 01:24:43;;;;;;;2.30;0.60;;;;;;;;;;5038310;28;20048;-65
2023/03/08 01:27:09;;;;;;;1.67;0.70;;;;;;;;;;5056194;28;20057;-65
2023/03/08 01:29:35;;;;;;;7.72;0.98;;;;;;;;;;5051617;28;20054;-65
2023/03/08 01:32:01;;;;;;;1.52;0.70;;;;;;;;;;5054418;28;20463;-65
2023/03/08 01:34:28;;;;;;;2.33;0.85;;;;;;;;;;5048758;28;20094;-65
2023/03/08 01:36:54;;;;;;;1.40;0.60;;;;;;;;;;5054485;28;20387;-65
2023/03/08 01:39:20;;;;;;;4.10;0.82;;;;;;;;;;5027067;28;20048;-65
2023/03/08 01:41:46;;;;;;;2.30;0.63;;;;;;;;;;5055535;28;20049;-65
2023/03/08 01:44:16;;;;;;;2.92;0.82;;;;;;;;;;5053242;28;20040;-65
2023/03/08 01:46:42;;;;;;;5.03;0.80;;;;;;;;;;5057485;28;20051;-65
2023/03/08 01:49:17;;;;;;;1.52;0.95;;;;;;;;;;5031759;28;20190;-65
2023/03/08 01:51:53;;;;;;;1.55;0.80;;;;;;;;;;5051797;28;20122;-65
2023/03/08 01:54:31;;;;;;;4.45;0.70;;;;;;;;;;5041335;28;20044;-65
2023/03/08 01:57:02;;;;;;;3.05;1.10;;;;;;;;;;5050587;28;20036;-65
2023/03/08 01:59:30;;;;;;;3.28;0.68;;;;;;;;;;5048374;28;20106;-65
2023/03/08 02:01:56;;;;;;;2.22;1.67;;;;;;;;;;5045154;28;20411;-65
2023/03/08 02:04:22;;;;;;;1.77;0.50;;;;;;;;;;5048862;28;20029;-65
2023/03/08 02:06:48;;;;;;;1.08;0.50;;;;;;;;;;5049414;28;20041;-65
2023/03/08 02:09:14;;;;;;;0.95;0.70;;;;;;;;;;5045876;28;20502;-65
2023/03/08 02:11:41;;;;;;;1.77;0.50;;;;;;;;;;5052668;28;20048;-65
2023/03/08 02:14:07;;;;;;;0.73;0.50;;;;;;;;;;5057334;28;20037;-65
2023/03/08 02:16:33;;;;;;;0.30;0.30;;;;;;;;;;5046530;28;20048;-65
2023/03/08 02:19:01;;;;;;;0.38;0.25;;;;;;;;;;5033928;28;20451;-65
2023/03/08 02:21:28;;;;;;;0.35;0.35;;;;;;;;;;5047483;28;20049;-65
2023/03/08 02:23:55;;;;;;;0.55;0.40;;;;;;;;;;5045518;28;20064;-65
2023/03/08 02:26:21;;;;;;;1.38;0.70;;;;;;;;;;5022995;28;20037;-65
2023/03/08 02:28:47;;;;;;;1.23;0.65;;;;;;;;;;5039200;28;20127;-65
2023/03/08 02:31:14;;;;;;;0.30;0.30;;;;;;;;;;5049935;28;20124;-65
2023/03/08 02:33:40;;;;;;;1.08;0.43;;;;;;;;;;5045557;28;20103;-65
2023/03/08 02:36:08;;;;;;;1.00;0.90;;;;;;;;;;5046551;28;20405;-65
2023/03/08 02:38:35;;;;;;;0.63;0.35;;;;;;;;;;5026542;28;20506;-65
2023/03/08 02:41:01;;;;;;;1.63;0.40;;;;;;;;;;5046496;28;20041;-65
2023/03/08 02:43:27;;;;;;;0.65;0.40;;;;;;;;;;5047757;28;20041;-65
2023/03/08 02:45:53;;;;;;;0.88;0.47;;;;;;;;;;5047936;28;20041;-65
2023/03/08 02:48:19;;;;;;;2.08;0.68;;;;;;;;;;5050600;28;20090;-65
2023/03/08 02:50:45;;;;;;;0.98;0.60;;;;;;;;;;5045438;28;20128;-65
2023/03/08 02:53:12;;;;;;;1.85;0.70;;;;;;;;;;5045424;28;20052;-65
2023/03/08 02:55:38;;;;;;;1.00;0.70;;;;;;;;;;5028563;28;20039;-65
2023/03/08 02:58:05;;;;;;;1.33;1.13;;;;;;;;;;5030118;28;20404;-65
2023/03/08 03:00:32;;;;;;;1.65;0.90;;;;;;;;;;5056104;28;20070;-65
2023/03/08 03:02:58;;;;;;;2.92;0.80;;;;;;;;;;5048929;28;20090;-65
2023/03/08 03:05:24;;;;;;;7.18;0.90;;;;;;;;;;5029978;28;20184;-65
2023/03/08 03:07:50;;;;;;;2.40;0.73;;;;;;;;;;5041004;28;20033;-65
2023/03/08 03:10:16;;;;;;;2.10;0.95;;;;;;;;;;5041884;28;20049;-65
2023/03/08 03:12:43;;;;;;;4.63;1.55;;;;;;;;;;5039530;28;20167;-65
2023/03/08 03:15:10;;;;;;;2.22;0.80;;;;;;;;;;5050964;28;20041;-65
2023/03/08 03:17:37;;;;;;;1.30;0.45;;;;;;;;;;5031794;28;20464;-65
2023/03/08 03:20:05;;;;;;;4.30;0.93;;;;;;;;;;5013142;28;20056;-65
2023/03/08 03:22:32;;;;;;;1.40;0.80;;;;;;;;;;5049351;28;20045;-66
2023/03/08 03:24:58;;;;;;;2.95;0.80;;;;;;;;;;5044809;28;20036;-65
2023/03/08 03:27:24;;;;;;;2.05;0.68;;;;;;;;;;5058127;28;20033;-65
2023/03/08 03:29:50;;;;;;;3.25;0.88;;;;;;;;;;5045435;28;20479;-65
2023/03/08 03:32:16;;;;;;;5.93;0.93;;;;;;;;;;5046397;28;20506;-65
2023/03/08 03:34:42;;;;;;;2.10;0.88;;;;;;;;;;5047485;28;20044;-65
2023/03/08 03:37:09;;;;;;;1.10;0.80;;;;;;;;;;5052990;28;20051;-65
2023/03/08 03:39:36;;;;;;;1.55;0.95;;;;;;;;;;5042744;28;20040;-65
2023/03/08 03:42:02;;;;;;;1.48;0.70;;;;;;;;;;5045419;28;20041;-65
2023/03/08 03:44:29;;;;;;;2.45;0.70;;;;;;;;;;5045193;28;20518;-65
2023/03/08 03:46:56;;;;;;;1.60;0.85;;;;;;;;;;5043339;28;20569;-65
2023/03/08 03:49:22;;;;;;;6.10;1.30;;;;;;;;;;5047709;28;20048;-65
2023/03/08 03:51:48;;;;;;;2.53;0.70;;;;;;;;;;5055426;28;20051;-65
2023/03/08 03:54:15;;;;;;;3.17;0.93;;;;;;;;;;5032457;28;20070;-65
2023/03/08 03:56:41;;;;;;;1.27;0.80;;;;;;;;;;5046316;28;20048;-65
2023/03/08 03:59:07;;;;;;;2.50;0.80;;;;;;;;;;5026590;28;20371;-65
2023/03/08 04:01:33;;;;;;;1.92;0.82;;;;;;;;;;5048693;28;20106;-65
2023/03/08 04:03:59;;;;;;;2.58;0.85;;;;;;;;;;5049882;28;20054;-65
2023/03/08 04:06:27;;;;;;;2.20;0.68;;;;;;;;;;5032614;28;20048;-65
2023/03/08 04:08:58;;;;;;;2.50;0.80;;;;;;;;;;5040518;28;20148;-65
2023/03/08 04:11:25;;;;;;;3.90;0.95;;;;;;;;;;5042845;28;20122;-65
2023/03/08 04:13:51;;;;;;;1.88;0.70;;;;;;;;;;5041813;28;20435;-65
2023/03/08 04:16:22;;;;;;;2.17;0.88;;;;;;;;;;5053838;28;20048;-65
2023/03/08 04:18:48;;;;;;;4.82;0.70;;;;;;;;;;5049677;28;20045;-65
2023/03/08 04:21:14;;;;;;;1.25;0.80;;;;;;;;;;5043988;28;20518;-65
2023/03/08 04:23:41;;;;;;;1.20;0.68;;;;;;;;;;5047193;28;20045;-65
2023/03/08 04:26:07;;;;;;;3.15;0.93;;;;;;;;;;5044635;28;20518;-65
2023/03/08 04:28:33;;;;;;;1.23;0.60;;;;;;;;;;5044399;28;20048;-65
2023/03/08 04:31:00;;;;;;;0.65;0.65;;;;;;;;;;5039427;28;20452;-65
2023/03/08 04:33:26;;;;;;;0.73;0.70;;;;;;;;;;5043941;28;20045;-65
2023/03/08 04:35:52;;;;;;;2.17;0.80;;;;;;;;;;5045734;28;20072;-65
2023/03/08 04:38:19;;;;;;;3.00;0.90;;;;;;;;;;5041980;28;20107;-65
2023/03/08 04:41:01;;;;;;;1.77;0.85;;;;;;;;;;5015323;28;20072;-65
2023/03/08 04:43:33;;;;;;;0.77;0.60;;;;;;;;;;5049699;28;20076;-68
2023/03/08 04:46:00;;;;;;;1.60;0.90;;;;;;;;;;5052065;28;20037;-65
2023/03/08 04:48:26;;;;;;;1.58;0.98;;;;;;;;;;5031540;28;20048;-65
2023/03/08 04:50:56;;;;;;;0.43;0.40;;;;;;;;;;5049682;28;20033;-65
2023/03/08 04:53:23;;;;;;;2.85;1.20;;;;;;;;;;5029958;28;20056;-65
2023/03/08 04:55:49;;;;;;;3.63;0.85;;;;;;;;;;5049542;28;20041;-65
2023/03/08 04:58:15;;;;;;;2.67;0.82;;;;;;;;;;5052196;28;20037;-66
2023/03/08 05:00:41;;;;;;;0.90;0.77;;;;;;;;;;5047265;28;20490;-65
2023/03/08 05:03:08;;;;;;;0.98;0.70;;;;;;;;;;5051975;28;20040;-65
2023/03/08 05:05:34;;;;;;;0.80;0.68;;;;;;;;;;5034566;28;20127;-65
2023/03/08 05:08:04;;;;;;;2.08;0.68;;;;;;;;;;5049971;28;20171;-65
2023/03/08 05:10:30;;;;;;;1.30;0.68;;;;;;;;;;5024298;28;20041;-65
2023/03/08 05:12:57;;;;;;;0.60;0.50;;;;;;;;;;5043356;28;20041;-65
2023/03/08 05:15:23;;;;;;;3.55;1.00;;;;;;;;;;5054415;28;20132;-65
2023/03/08 05:17:49;;;;;;;5.90;0.90;;;;;;;;;;5026425;28;20045;-65
2023/03/08 05:20:16;;;;;;;3.17;0.60;;;;;;;;;;5051621;28;20244;-65
2023/03/08 05:22:42;;;;;;;2.78;1.65;;;;;;;;;;5050807;28;20450;-65
2023/03/08 05:25:09;;;;;;;1.80;0.80;;;;;;;;;;5050160;28;20554;-65
2023/03/08 05:27:36;;;;;;;0.50;0.50;;;;;;;;;;5049622;28;20123;-65
2023/03/08 05:30:03;;;;;;;2.28;0.73;;;;;;;;;;5052223;28;20093;-65
2023/03/08 05:32:29;;;;;;;5.88;1.48;;;;;;;;;;5050238;28;20103;-65
2023/03/08 05:34:55;;;;;;;1.10;0.73;;;;;;;;;;5032518;28;20037;-65
2023/03/08 05:37:24;;;;;;;2.83;0.95;;;;;;;;;;5054346;28;20047;-65
2023/03/08 05:39:51;;;;;;;4.20;1.10;;;;;;;;;;5048910;28;20045;-65
2023/03/08 05:42:18;;;;;;;1.23;0.65;;;;;;;;;;5037255;28;20071;-65
2023/03/08 05:44:44;;;;;;;1.73;0.98;;;;;;;;;;5016926;28;20040;-65
2023/03/08 05:47:10;;;;;;;2.75;1.85;;;;;;;;;;5044261;28;20150;-65
2023/03/08 05:49:37;;;;;;;2.75;0.95;;;;;;;;;;5045634;28;20052;-65
2023/03/08 05:52:03;;;;;;;6.30;1.70;;;;;;;;;;5046056;28;20084;-65
2023/03/08 05:54:29;;;;;;;2.80;1.65;;;;;;;;;;5007091;28;20037;-65
2023/03/08 05:56:56;;;;;;;2.92;1.38;;;;;;;;;;5016645;28;20128;-65
2023/03/08 05:59:22;;;;;;;2.95;1.67;;;;;;;;;;4998133;28;20195;-65
2023/03/08 06:01:48;;;;;;;4.55;1.60;;;;;;;;;;5016155;28;20040;-65
2023/03/08 06:04:14;;;;;;;2.75;1.48;;;;;;;;;;5027894;28;20051;-64
2023/03/08 06:06:40;;;;;;;1.77;1.27;;;;;;;;;;5039282;28;20114;-65
2023/03/08 06:09:07;;;;;;;2.40;1.20;;;;;;;;;;5045404;28;20071;-65
2023/03/08 06:11:33;;;;;;;3.00;1.20;;;;;;;;;;5029600;28;20055;-65
2023/03/08 06:14:00;;;;;;;3.00;1.10;;;;;;;;;;5041086;28;20114;-65
2023/03/08 06:16:26;;;;;;;1.77;1.10;;;;;;;;;;5009032;28;20049;-65
2023/03/08 06:18:52;;;;;;;7.50;1.52;;;;;;;;;;5036499;28;20079;-66
2023/03/08 06:21:22;;;;;;;2.63;1.13;;;;;;;;;;5049811;28;20049;-66
2023/03/08 06:23:49;;;;;;;3.25;1.45;;;;;;;;;;5050229;28;20041;-66
2023/03/08 06:26:15;;;;;;;3.40;1.95;;;;;;;;;;5029127;28;21162;-66
2023/03/08 06:28:42;;;;;;;2.30;1.15;;;;;;;;;;5049318;28;20041;-65
2023/03/08 06:31:10;;;;;;;2.75;1.60;;;;;;;;;;5057643;28;20040;-66
2023/03/08 06:33:36;;;;;;;1.70;1.50;;;;;;;;;;5028929;28;20044;-66
2023/03/08 06:36:05;;;;;;;3.90;1.42;;;;;;;;;;5050124;28;20041;-66
2023/03/08 06:38:33;;;;;;;2.80;1.27;;;;;;;;;;5048340;28;20048;-66
2023/03/08 06:41:00;;;;;;;3.45;1.58;;;;;;;;;;5046445;28;20037;-66
2023/03/08 06:43:26;;;;;;;2.58;1.40;;;;;;;;;;5050300;28;20041;-66
2023/03/08 06:45:53;;;;;;;2.67;1.75;;;;;;;;;;5048136;28;20037;-64
2023/03/08 06:48:19;;;;;;;2.20;1.15;;;;;;;;;;5032839;28;20114;-66
2023/03/08 06:50:45;;;;;;;4.47;1.38;;;;;;;;;;5009744;28;20210;-65
2023/03/08 06:53:11;;;;;;;2.55;1.52;;;;;;;;;;5045887;28;20052;-65
2023/03/08 06:55:39;;;;;;;1.92;1.15;;;;;;;;;;5044874;28;20452;-66
2023/03/08 06:58:05;;;;;;;2.03;1.30;;;;;;;;;;5041742;28;20043;-66
2023/03/08 07:00:32;;;;;;;2.97;1.45;;;;;;;;;;5037254;28;20041;-66
2023/03/08 07:02:58;;;;;;;1.75;1.30;;;;;;;;;;5008405;28;20049;-65
2023/03/08 07:05:25;;;;;;;5.10;1.70;;;;;;;;;;5002378;28;20049;-65
2023/03/08 07:07:51;;;;;;;3.78;1.60;;;;;;;;;;4991815;28;20447;-65
2023/03/08 07:10:19;;;;;;;3.97;1.50;;;;;;;;;;5036221;28;20593;-66
2023/03/08 07:12:48;;;;;;;3.70;1.88;;;;;;;;;;5043269;28;20059;-65
2023/03/08 07:15:15;;;;;;;5.45;2.03;;;;;;;;;;5041687;28;20491;-65
2023/03/08 07:17:42;;;;;;;5.35;2.35;;;;;;;;;;5035611;28;20120;-65
2023/03/08 07:20:09;;;;;;;4.80;2.00;;;;;;;;;;5023894;28;20043;-65
2023/03/08 07:22:35;;;;;;;5.22;2.10;;;;;;;;;;4970582;28;20077;-65
2023/03/08 07:25:02;;;;;;;7.35;2.35;;;;;;;;;;5012880;28;20278;-65
2023/03/08 07:27:28;;;;;;;4.57;1.98;;;;;;;;;;4972494;28;20038;-65
2023/03/08 07:29:54;;;;;;;5.32;1.80;;;;;;;;;;5021782;28;20038;-65
2023/03/08 07:32:22;;;;;;;5.13;2.65;;;;;;;;;;4988375;28;20514;-65
2023/03/08 07:34:48;;;;;;;4.28;2.28;;;;;;;;;;4985607;28;20500;-65
2023/03/08 07:37:15;;;;;;;3.03;1.80;;;;;;;;;;5025030;28;20147;-65
2023/03/08 07:39:42;;;;;;;4.00;1.55;;;;;;;;;;5032610;28;20033;-65
2023/03/08 07:42:09;;;;;;;4.28;1.98;;;;;;;;;;5010385;28;20048;-65
2023/03/08 07:44:36;;;;;;;8.20;2.17;;;;;;;;;;5027786;28;20060;-66
2023/03/08 07:47:02;;;;;;;4.20;1.80;;;;;;;;;;5023559;28;20634;-65
2023/03/08 07:49:28;;;;;;;4.15;2.10;;;;;;;;;;5027278;28;20038;-65
2023/03/08 07:51:55;;;;;;;5.70;1.90;;;;;;;;;;5018028;28;20037;-65
2023/03/08 07:54:21;;;;;;;9.45;2.05;;;;;;;;;;5012239;28;20548;-65
2023/03/08 07:56:47;;;;;;;3.08;1.70;;;;;;;;;;5024213;28;20482;-65
2023/03/08 07:59:13;;;;;;;2.88;1.70;;;;;;;;;;5015598;28;20041;-65
2023/03/08 08:01:39;;;;;;;5.18;2.00;;;;;;;;;;5026759;28;20056;-65
2023/03/08 08:04:07;;;;;;;3.05;1.60;;;;;;;;;;5014247;28;20384;-65
2023/03/08 08:06:34;;;;;;;3.25;1.77;;;;;;;;;;5028520;28;20436;-65
2023/03/08 08:09:01;;;;;;;5.78;1.85;;;;;;;;;;5008336;28;20063;-65
2023/03/08 08:11:27;;;;;;;5.10;1.80;;;;;;;;;;5033187;28;20045;-65
2023/03/08 08:13:53;;;;;;;4.95;2.00;;;;;;;;;;5031124;28;20356;-65
2023/03/08 08:16:19;;;;;;;5.07;1.65;;;;;;;;;;5032877;28;20505;-65
2023/03/08 08:18:45;;;;;;;2.97;1.60;;;;;;;;;;5004055;28;20119;-65
2023/03/08 08:21:13;;;;;;;5.55;2.10;;;;;;;;;;5039872;28;20281;-65
2023/03/08 08:23:40;;;;;;;4.90;1.88;;;;;;;;;;5047106;28;20059;-65
2023/03/08 08:26:07;;;;;;;5.32;1.92;;;;;;;;;;5051667;28;20048;-65
2023/03/08 08:28:34;;;;;;;3.92;1.52;;;;;;;;;;5047273;28;20083;-66
2023/03/08 08:31:21;;;;;;;5.10;1.63;;;;;;;;;;5051337;28;20048;-65
2023/03/08 08:33:47;;;;;;;2.97;1.73;;;;;;;;;;5050043;28;20134;-65
2023/03/08 08:36:17;;;;;;;3.50;1.90;;;;;;;;;;5048518;28;20120;-65
2023/03/08 08:38:47;;;;;;;3.38;1.80;;;;;;;;;;5013534;28;20037;-65
2023/03/08 08:41:14;;;;;;;3.83;2.33;;;;;;;;;;5029012;28;20048;-65
2023/03/08 08:43:40;;;;;;;4.00;2.65;;;;;;;;;;5023517;28;20039;-65
2023/03/08 08:46:06;;;;;;;3.20;2.35;;;;;;;;;;5047320;28;20132;-65
2023/03/08 08:48:33;;;;;;;4.45;2.30;;;;;;;;;;5045170;28;20060;-65
2023/03/08 08:51:00;;;;;;;6.47;1.88;;;;;;;;;;5029371;28;20119;-65
2023/03/08 08:53:26;;;;;;;6.05;2.65;;;;;;;;;;5047811;28;20491;-65
2023/03/08 08:55:52;;;;;;;4.57;1.98;;;;;;;;;;5042289;28;20430;-65
2023/03/08 08:58:18;;;;;;;4.28;2.53;;;;;;;;;;5040327;28;20490;-65
2023/03/08 09:00:45;;;;;;;5.47;2.30;;;;;;;;;;5055776;28;20037;-65
2023/03/08 09:03:11;;;;;;;5.40;2.42;;;;;;;;;;5052213;28;20097;-65
2023/03/08 09:05:39;;;;;;;3.97;2.40;;;;;;;;;;5048815;28;20123;-65
2023/03/08 09:08:06;;;;;;;6.05;2.83;;;;;;;;;;5053900;28;20058;-65
2023/03/08 09:10:33;;;;;;;7.13;4.38;;;;;;;;;;5049282;28;20110;-65
2023/03/08 09:12:59;;;;;;;4.88;3.30;;;;;;;;;;5037200;28;20138;-65
2023/03/08 09:15:26;;;;;;;5.90;3.17;;;;;;;;;;5028106;28;20041;-65
2023/03/08 09:17:52;;;;;;;3.75;2.38;;;;;;;;;;5046129;28;20045;-65
2023/03/08 09:20:18;;;;;;;6.13;3.35;;;;;;;;;;5045162;28;20033;-65
2023/03/08 09:22:45;;;;;;;7.38;3.50;;;;;;;;;;5030989;28;20048;-65
2023/03/08 09:25:12;;;;;;;6.43;3.83;;;;;;;;;;5036376;28;20043;-65
2023/03/08 09:27:39;;;;;;;4.70;3.28;;;;;;;;;;5056513;28;20040;-65
2023/03/08 09:30:06;;;;;;;6.50;2.85;;;;;;;;;;5033738;28;20144;-65
2023/03/08 09:32:33;;;;;;;4.13;2.78;;;;;;;;;;5053209;28;20045;-65
2023/03/08 09:34:59;;;;;;;8.20;3.72;;;;;;;;;;5053501;28;20060;-65
2023/03/08 09:37:25;;;;;;;6.20;3.15;;;;;;;;;;5052386;28;20072;-65
2023/03/08 09:39:52;;;;;;;4.72;3.45;;;;;;;;;;5037673;28;20110;-65
2023/03/08 09:42:22;;;;;;;6.90;3.03;;;;;;;;;;5055228;28;20060;-65
2023/03/08 09:44:49;;;;;;;7.82;3.28;;;;;;;;;;5052684;28;20108;-65
2023/03/08 09:47:18;;;;;;;5.95;2.80;;;;;;;;;;5046977;28;20475;-64
2023/03/08 09:49:45;;;;;;;5.20;3.65;;;;;;;;;;5035369;28;20204;-64
2023/03/08 09:52:47;;;;;;;7.57;3.40;;;;;;;;;;5048910;28;20041;-64
2023/03/08 09:55:19;;;;;;;3.88;2.60;;;;;;;;;;4999735;28;20304;-64
2023/03/08 09:57:52;;;;;;;3.95;2.88;;;;;;;;;;5047633;28;20095;-64
2023/03/08 10:00:20;;;;;;;7.05;2.85;;;;;;;;;;5032322;28;20056;-64
2023/03/08 10:02:52;;;;;;;5.95;2.50;;;;;;;;;;5048175;28;20094;-64
2023/03/08 10:05:28;;;;;;;5.45;2.95;;;;;;;;;;5030022;28;20029;-64
2023/03/08 10:07:54;;;;;;;5.00;2.72;;;;;;;;;;5051509;28;20120;-64
2023/03/08 10:10:42;;;;;;;6.03;2.03;;;;;;;;;;5048993;28;20029;-65
2023/03/08 10:13:17;;;;;;;6.22;2.15;;;;;;;;;;5048494;28;20418;-64
2023/03/08 10:15:46;;;;;;;4.55;2.75;;;;;;;;;;5052838;28;20051;-65
2023/03/08 10:18:12;;;;;;;5.95;2.33;;;;;;;;;;5050523;28;20037;-65
2023/03/08 10:20:40;;;;;;;4.43;2.20;;;;;;;;;;5049727;28;20069;-64
2023/03/08 10:23:15;;;;;;;4.75;1.80;;;;;;;;;;5053006;28;20502;-64
2023/03/08 10:25:41;;;;;;;4.25;2.10;;;;;;;;;;5052470;28;20040;-64
2023/03/08 10:28:21;;;;;;;7.45;2.67;;;;;;;;;;5053652;28;20380;-64
2023/03/08 10:30:53;;;;;;;7.70;2.88;;;;;;;;;;5052749;28;20039;-64
2023/03/08 10:33:20;;;;;;;4.03;2.20;;;;;;;;;;5052893;28;20037;-65
2023/03/08 10:35:53;;;;;;;3.45;2.08;;;;;;;;;;5048135;28;20482;-65
2023/03/08 10:38:19;;;;;;;6.68;2.22;;;;;;;;;;5054863;28;20425;-65
2023/03/08 10:40:45;;;;;;;5.22;1.70;;;;;;;;;;5019252;28;20116;-65
2023/03/08 10:43:31;;;;;;;3.45;1.75;;;;;;;;;;5055198;28;20045;-65
2023/03/08 10:46:03;;;;;;;7.93;1.73;;;;;;;;;;5054460;28;20118;-65
2023/03/08 10:48:29;;;;;;;2.58;1.52;;;;;;;;;;5051997;28;21086;-64
2023/03/08 10:50:59;;;;;;;4.43;1.80;;;;;;;;;;5053156;28;20053;-64
2023/03/08 10:53:28;;;;;;;6.93;2.08;;;;;;;;;;5057759;28;20110;-65
2023/03/08 10:55:54;;;;;;;4.22;1.50;;;;;;;;;;5048618;28;20052;-64
2023/03/08 10:58:39;;;;;;;5.07;1.70;;;;;;;;;;5036117;28;20160;-65
2023/03/08 11:01:07;;;;;;;4.43;2.03;;;;;;;;;;5052167;28;20167;-65
2023/03/08 11:03:33;;;;;;;11.23;1.98;;;;;;;;;;5044409;28;20049;-65
2023/03/08 11:05:59;;;;;;;4.57;1.75;;;;;;;;;;5033883;28;20406;-65
2023/03/08 11:08:33;;;;;;;4.28;1.90;;;;;;;;;;5040697;28;20048;-65
2023/03/08 11:11:00;;;;;;;4.90;2.03;;;;;;;;;;5033551;28;20056;-65
2023/03/08 11:13:30;;;;;;;4.07;1.50;;;;;;;;;;5046070;28;20446;-65
2023/03/08 11:16:10;;;;;;;3.83;1.60;;;;;;;;;;5042616;28;20098;-65
2023/03/08 11:18:44;;;;;;;3.33;1.42;;;;;;;;;;5053854;28;20130;-65
2023/03/08 11:21:20;;;;;;;3.63;1.70;;;;;;;;;;5037747;28;20045;-65
2023/03/08 11:23:52;;;;;;;2.75;1.65;;;;;;;;;;5029886;28;20502;-65
2023/03/08 11:26:24;;;;;;;5.85;2.10;;;;;;;;;;5047250;28;20045;-65
2023/03/08 11:29:11;;;;;;;3.25;2.10;;;;;;;;;;5045133;28;20041;-65
2023/03/08 11:32:06;;;;;;;6.20;2.28;;;;;;;;;;5047638;28;20053;-65
2023/03/08 11:34:51;;;;;;;2.67;1.35;;;;;;;;;;5034164;28;20614;-65
2023/03/08 11:37:17;;;;;;;2.92;1.40;;;;;;;;;;5042636;28;20068;-65
2023/03/08 11:39:53;;;;;;;2.70;1.60;;;;;;;;;;5044901;28;20116;-65
2023/03/08 11:42:32;;;;;;;4.55;1.55;;;;;;;;;;5045775;28;20045;-65
2023/03/08 11:45:16;;;;;;;1.65;1.15;;;;;;;;;;5025131;28;20114;-65
2023/03/08 11:47:46;;;;;;;4.43;1.23;;;;;;;;;;5030123;28;20519;-65
2023/03/08 11:50:27;;;;;;;4.28;1.42;;;;;;;;;;5039455;28;20059;-65
2023/03/08 11:53:14;;;;;;;1.90;1.15;;;;;;;;;;5049510;28;20072;-65
2023/03/08 11:56:04;;;;;;;2.00;1.48;;;;;;;;;;5048280;28;20045;-65
2023/03/08 11:58:44;;;;;;;2.55;1.40;;;;;;;;;;5042130;28;20452;-65
2023/03/08 12:01:30;;;;;;;6.03;1.27;;;;;;;;;;5050434;28;20033;-65
2023/03/08 12:03:58;;;;;;;3.35;1.63;;;;;;;;;;5042648;28;20040;-66
2023/03/08 12:06:30;;;;;;;4.55;1.67;;;;;;;;;;5046662;28;20429;-64
2023/03/08 12:09:15;;;;;;;6.53;1.50;;;;;;;;;;5051209;28;20521;-65
2023/03/08 12:11:44;;;;;;;5.25;1.70;;;;;;;;;;5035445;28;20033;-65
2023/03/08 12:14:15;;;;;;;3.95;1.55;;;;;;;;;;5048571;28;20475;-66
2023/03/08 12:16:53;;;;;;;6.03;1.60;;;;;;;;;;5032357;28;20045;-66
2023/03/08 12:19:22;;;;;;;6.97;1.42;;;;;;;;;;5047615;28;20032;-65
2023/03/08 12:21:49;;;;;;;5.22;1.90;;;;;;;;;;5051026;28;20084;-65
2023/03/08 12:24:33;;;;;;;2.05;1.30;;;;;;;;;;5044759;28;20079;-65
2023/03/08 12:27:03;;;;;;;3.70;1.30;;;;;;;;;;5045847;28;20082;-66
2023/03/08 12:29:32;;;;;;;2.83;1.20;;;;;;;;;;5048461;28;20668;-65
2023/03/08 12:31:59;;;;;;;4.97;1.60;;;;;;;;;;5052602;28;20041;-65
2023/03/08 12:34:28;;;;;;;3.65;2.50;;;;;;;;;;5053455;28;20091;-65
2023/03/08 12:36:54;;;;;;;4.15;1.45;;;;;;;;;;5050359;28;20123;-65
2023/03/08 12:39:26;;;;;;;4.45;1.83;;;;;;;;;;5045091;28;20376;-65
2023/03/08 12:42:04;;;;;;;3.22;1.10;;;;;;;;;;5052796;28;20041;-65
2023/03/08 12:44:30;;;;;;;5.22;1.65;;;;;;;;;;5055722;28;20053;-66
2023/03/08 12:46:59;;;;;;;6.55;1.35;;;;;;;;;;5048127;28;20120;-65
2023/03/08 12:49:33;;;;;;;4.03;1.77;;;;;;;;;;5043187;28;20352;-65
2023/03/08 12:52:05;;;;;;;2.40;1.20;;;;;;;;;;5049232;28;20490;-65
2023/03/08 12:54:33;;;;;;;2.58;1.45;;;;;;;;;;5044135;28;20379;-64
2023/03/08 12:57:01;;;;;;;3.17;1.20;;;3.30;99.90;;;;;;5023689;28;20045;-65
2023/03/08 12:59:38;;;;;;;2.50;1.40;;;;;;;;;;5031671;28;20391;-65
2023/03/08 13:02:23;;;;;;;4.82;1.40;;;;;;;;;;5058955;28;20037;-65
2023/03/08 13:04:49;;;;;;;3.47;1.38;;;;;;;;;;5056561;28;20258;-64
2023/03/08 13:07:21;;;;;;;4.25;1.27;;;;;;;;;;5051138;28;20095;-64
2023/03/08 13:09:54;;;;;;;3.75;1.10;;;;;;;;;;5050645;28;20421;-64
2023/03/08 13:12:27;;;;;;;2.60;1.27;;;;;;;;;;5051141;28;20064;-65
2023/03/08 13:14:53;;;;;;;;;;;;;;;;;;5056184;28;20599;-65
2023/03/08 13:17:33;;;;;;;2.08;1.67;;;;;;;;;;5054189;28;19921;-65
2023/03/08 13:20:01;;;;;;;5.57;1.38;;;;;;;;;;5049167;28;20065;-65
2023/03/08 13:22:30;;;;;;;3.67;1.00;;;;;;;;;;5052843;28;20095;-65
2023/03/08 13:25:17;;;;;;;5.65;1.50;;;;;;;;;;5054634;28;20039;-65
2023/03/08 13:27:55;;;;;;;3.65;1.15;;;;;;;;;;5037093;28;20460;-65
2023/03/08 13:30:24;;;;;;;3.58;0.90;;;;;;;;;;5051738;28;20049;-66
2023/03/08 13:32:51;;;;;;;2.88;1.25;;;;;;;;;;5047063;28;20041;-65
2023/03/08 13:35:18;;;;;;;1.88;1.00;;;;;;;;;;5051890;28;20525;-65
2023/03/08 13:37:52;;;;;;;2.80;1.33;;;;;;;;;;5016530;28;20044;-65
2023/03/08 13:40:19;;;;;;;7.90;1.35;;;;;;;;;;5045312;28;20049;-65
2023/03/08 13:42:57;;;;;;;2.15;1.23;;;;;;;;;;5050331;28;20044;-65
2023/03/08 13:45:24;;;;;;;2.78;1.38;;;;;;;;;;5042732;28;20040;-65
2023/03/08 13:47:51;;;;;;;3.30;1.50;;;;;;;;;;5050467;28;20035;-65
2023/03/08 13:50:19;;;;;;;4.53;2.00;;;;;;;;;;5054013;28;20483;-65
2023/03/08 13:52:46;;;;;;;8.30;1.88;;;;;;;;;;5035358;28;20068;-65
2023/03/08 13:55:18;;;;;;;3.72;2.00;;;;;;;;;;5056556;28;20090;-65
2023/03/08 13:57:47;;;;;;;3.28;1.67;;;;;;;;;;5042726;28;20056;-65
2023/03/08 14:00:22;;;;;;;4.82;1.52;;;;;;;;;;5049963;28;20445;-65
2023/03/08 14:02:49;;;;;;;3.70;2.42;;;;;;;;;;5049730;28;20099;-65
2023/03/08 14:05:16;;;;;;;3.85;2.17;;;;;;;;;;5062506;28;20040;-65
2023/03/08 14:07:43;;;;;;;3.30;1.88;;;;;;;;;;5060191;28;20044;-65
2023/03/08 14:10:13;;;;;;;2.90;1.70;;;;;;;;;;5055822;28;20053;-65
2023/03/08 14:12:39;;;;;;;4.35;1.60;;;;;;;;;;5039957;28;20116;-66
2023/03/08 14:15:06;;;;;;;4.03;1.95;;;;;;;;;;5057281;28;20106;-66
2023/03/08 14:17:34;;;;;;;5.22;1.50;;;;;;;;;;5034848;28;20036;-65
2023/03/08 14:20:03;;;;;;;3.30;1.30;;;;;;;;;;5049796;28;20040;-66
2023/03/08 14:22:30;;;;;;;2.30;1.20;;;;;;;;;;5059746;28;20388;-66
2023/03/08 14:25:00;;;;;;;2.22;1.10;;;;;;;;;;5058198;28;20040;-65
2023/03/08 14:27:32;;;;;;;2.15;1.08;;;;;;;;;;5046821;28;20048;-66
2023/03/08 14:30:03;;;;;;;3.03;1.67;;;;;;;;;;5056887;28;20037;-66
2023/03/08 14:32:31;;;;;;;4.53;1.42;;;;;;;;;;5054415;28;20051;-66
2023/03/08 14:35:26;;;;;;;1.58;1.17;;;;;;;;;;5060820;28;20045;-66
2023/03/08 14:37:54;;;;;;;4.35;1.70;;;;;;;;;;5004372;28;20055;-66
2023/03/08 14:40:21;;;;;;;3.22;1.95;;;;;;;;;;5041090;28;20051;-65
2023/03/08 14:42:48;;;;;;;7.43;2.25;;;;;;;;;;5055763;28;20044;-66
2023/03/08 14:45:18;;;;;;;2.70;1.60;;;;;;;;;;5051664;28;20051;-65
2023/03/08 14:47:49;;;;;;;4.63;1.75;;;;;;;;;;5015624;28;20025;-65
2023/03/08 14:50:18;;;;;;;2.28;1.58;;;;;;;;;;5046172;28;20041;-66
2023/03/08 14:52:45;;;;;;;5.90;1.83;;;;;;;;;;5033687;28;20048;-66